createdAt,value
2023-01-10T00:00:56.517Z,3.25
2023-01-10T00:05:57.894Z,2.22
2023-01-10T00:11:19.244Z,2.05
2023-01-10T00:16:21.278Z,0.40
2023-01-10T00:21:22.635Z,2.10
2023-01-10T00:26:23.943Z,2.05
2023-01-10T00:31:25.327Z,1.55
2023-01-10T00:36:26.643Z,2.28
2023-01-10T00:41:46.480Z,1.92
2023-01-10T00:46:47.877Z,1.63
2023-01-10T00:51:49.518Z,0.80
2023-01-10T00:56:50.924Z,1.20
2023-01-10T01:01:52.760Z,0.75
2023-01-10T01:06:54.142Z,1.20
2023-01-10T01:11:56.470Z,2.67
2023-01-10T01:16:57.875Z,1.55
2023-01-10T01:21:59.206Z,3.53
2023-01-10T01:27:00.571Z,2.40
2023-01-10T01:32:01.890Z,0.88
2023-01-10T01:37:03.363Z,0.95
2023-01-10T01:42:06.245Z,1.50
2023-01-10T01:47:21.837Z,2.67
2023-01-10T01:52:29.534Z,1.77
2023-01-10T01:57:32.920Z,1.63
2023-01-10T02:02:53.998Z,4.18
2023-01-10T02:08:03.380Z,7.50
2023-01-10T02:13:08.130Z,8.15
2023-01-10T02:18:10.043Z,3.80
2023-01-10T02:23:45.473Z,2.33
2023-01-10T02:29:18.888Z,7.47
2023-01-10T02:34:28.984Z,0.93
2023-01-10T02:39:42.941Z,4.18
2023-01-10T02:45:14.779Z,2.72
2023-01-10T02:50:43.040Z,2.58
2023-01-10T02:56:12.611Z,2.88
2023-01-10T03:01:47.091Z,1.90
2023-01-10T03:07:16.530Z,3.58
2023-01-10T03:12:35.780Z,1.70
2023-01-10T03:17:40.260Z,2.72
2023-01-10T03:22:43.137Z,3.25
2023-01-10T03:27:56.577Z,3.13
2023-01-10T03:32:59.908Z,3.83
2023-01-10T03:38:13.765Z,3.22
2023-01-10T03:43:40.075Z,5.03
2023-01-10T03:48:44.637Z,2.45
2023-01-10T03:53:46.139Z,2.72
2023-01-10T03:58:47.762Z,6.32
2023-01-10T04:03:50.425Z,1.75
2023-01-10T04:08:51.886Z,5.15
2023-01-10T04:13:53.792Z,11.20
2023-01-10T04:18:55.220Z,3.30
2023-01-10T04:23:56.530Z,1.25
2023-01-10T04:28:57.873Z,3.35
2023-01-10T04:33:59.975Z,3.05
2023-01-10T04:39:01.324Z,5.35
2023-01-10T04:44:02.767Z,3.60
2023-01-10T04:49:04.267Z,2.38
2023-01-10T04:54:05.653Z,8.30
2023-01-10T04:59:07.020Z,2.85
2023-01-10T05:04:08.808Z,2.30
2023-01-10T05:09:10.323Z,2.30
2023-01-10T05:14:11.661Z,5.15
2023-01-10T05:19:13.099Z,4.38
2023-01-10T05:24:14.431Z,3.17
2023-01-10T05:29:15.741Z,3.63
2023-01-10T05:34:17.059Z,3.17
2023-01-10T05:39:18.499Z,6.47
2023-01-10T05:44:19.899Z,8.63
2023-01-10T05:49:21.248Z,3.78
2023-01-10T05:54:22.731Z,4.90
2023-01-10T05:59:31.081Z,5.25
2023-01-10T06:04:32.484Z,4.18
2023-01-10T06:09:33.837Z,7.03
2023-01-10T06:14:35.194Z,7.38
2023-01-10T06:19:36.618Z,6.13
2023-01-10T06:24:37.949Z,7.75
2023-01-10T06:29:39.267Z,6.70
2023-01-10T06:34:40.601Z,5.90
2023-01-10T06:39:42.016Z,6.93
2023-01-10T06:44:43.372Z,4.97
2023-01-10T06:49:44.735Z,7.70
2023-01-10T06:54:46.123Z,5.45
2023-01-10T06:59:47.475Z,7.35
2023-01-10T07:04:49.097Z,4.30
2023-01-10T07:09:50.832Z,7.03
2023-01-10T07:14:52.216Z,9.07
2023-01-10T07:19:53.593Z,6.18
2023-01-10T07:24:54.972Z,9.93
2023-01-10T07:29:56.318Z,10.25
2023-01-10T07:34:57.694Z,4.53
2023-01-10T07:39:59.001Z,9.00
2023-01-10T07:45:00.325Z,6.53
2023-01-10T07:50:01.655Z,5.97
2023-01-10T07:55:03.141Z,7.35
2023-01-10T08:00:04.817Z,6.38
2023-01-10T08:05:06.381Z,10.38
2023-01-10T08:10:08.391Z,7.45
2023-01-10T08:15:10.224Z,6.43
2023-01-10T08:20:11.982Z,9.75
2023-01-10T08:25:13.304Z,16.67
2023-01-10T08:30:15.117Z,7.57
2023-01-10T08:35:16.605Z,9.75
2023-01-10T08:40:18.066Z,7.80
2023-01-10T08:45:19.405Z,6.68
2023-01-10T08:50:21.001Z,8.80
2023-01-10T08:55:22.334Z,11.70
2023-01-10T09:00:23.854Z,6.78
2023-01-10T09:05:28.425Z,5.68
2023-01-10T09:10:30.350Z,13.13
2023-01-10T09:15:34.943Z,9.38
2023-01-10T09:20:38.798Z,7.57
2023-01-10T09:25:40.105Z,6.68
2023-01-10T09:30:41.642Z,5.45
2023-01-10T09:35:43.629Z,8.48
2023-01-10T09:41:17.304Z,10.75
2023-01-10T09:46:55.959Z,12.32
2023-01-10T09:51:59.194Z,9.82
2023-01-10T09:57:01.955Z,9.68
2023-01-10T10:02:27.373Z,6.18
2023-01-10T10:07:28.724Z,7.75
2023-01-10T10:13:00.631Z,9.57
2023-01-10T10:18:10.564Z,10.18
2023-01-10T10:23:27.521Z,11.55
2023-01-10T10:28:46.586Z,11.10
2023-01-10T10:34:15.980Z,7.18
2023-01-10T10:39:40.540Z,7.97
2023-01-10T10:44:49.220Z,7.57
2023-01-10T10:50:04.599Z,6.70
2023-01-10T10:55:07.471Z,14.73
2023-01-10T11:00:15.430Z,12.38
2023-01-10T11:05:23.633Z,8.88
2023-01-10T11:10:38.256Z,9.85
2023-01-10T11:15:43.415Z,6.00
2023-01-10T11:21:00.167Z,7.22
2023-01-10T11:26:02.223Z,10.45
2023-01-10T11:31:04.021Z,10.60
2023-01-10T11:36:08.766Z,9.20
2023-01-10T11:41:19.168Z,8.85
2023-01-10T11:46:25.637Z,10.25
2023-01-10T11:51:35.546Z,10.27
2023-01-10T11:56:39.928Z,11.27
2023-01-10T12:01:46.893Z,12.77
2023-01-10T12:06:50.855Z,11.93
2023-01-10T12:12:01.979Z,9.05
2023-01-10T12:17:04.028Z,11.77
2023-01-10T12:22:07.905Z,17.77
2023-01-10T12:27:12.662Z,15.15
2023-01-10T12:32:22.446Z,7.60
2023-01-10T12:37:42.644Z,12.82
2023-01-10T12:43:19.710Z,10.20
2023-01-10T12:48:50.369Z,13.23
2023-01-10T12:53:58.907Z,9.13
2023-01-10T12:59:04.752Z,10.55
2023-01-10T13:04:10.697Z,14.82
2023-01-10T13:09:22.157Z,8.90
2023-01-10T13:14:47.553Z,8.27
2023-01-10T13:20:16.958Z,6.53
2023-01-10T13:25:27.981Z,12.38
2023-01-10T13:30:40.769Z,9.00
2023-01-10T13:35:44.161Z,6.97
2023-01-10T13:41:30.246Z,12.15
2023-01-10T13:46:31.611Z,12.68
2023-01-10T13:51:33.077Z,10.80
2023-01-10T13:56:40.717Z,13.05
2023-01-10T14:02:01.435Z,9.77
2023-01-10T14:07:24.543Z,12.30
2023-01-10T14:12:37.216Z,16.30
2023-01-10T14:17:40.025Z,10.98
2023-01-10T14:22:56.595Z,11.00
2023-01-10T14:27:58.946Z,9.48
2023-01-10T14:33:19.357Z,14.45
2023-01-10T14:38:32.531Z,11.57
2023-01-10T14:43:45.326Z,10.85
2023-01-10T14:48:51.389Z,13.38
2023-01-10T14:54:04.730Z,16.67
2023-01-10T14:59:18.258Z,9.10
2023-01-10T15:04:22.967Z,7.07
2023-01-10T15:09:25.236Z,10.45
2023-01-10T15:14:28.063Z,9.23
2023-01-10T15:19:32.919Z,16.13
2023-01-10T15:24:36.387Z,9.45
2023-01-10T15:29:44.500Z,14.73
2023-01-10T15:34:49.218Z,9.15
2023-01-10T15:39:51.159Z,18.42
2023-01-10T15:44:53.301Z,17.95
2023-01-10T15:49:54.817Z,14.70
2023-01-10T15:54:57.005Z,10.15
2023-01-10T16:00:00.056Z,13.48
2023-01-10T16:05:13.747Z,15.57
2023-01-10T16:10:27.726Z,8.43
2023-01-10T16:15:35.392Z,14.20
2023-01-10T16:20:39.590Z,8.98
2023-01-10T16:25:45.600Z,12.50
2023-01-10T16:30:47.925Z,12.05
2023-01-10T16:35:54.435Z,9.68
2023-01-10T16:41:21.252Z,9.73
2023-01-10T16:46:23.085Z,8.57
2023-01-10T16:51:26.202Z,5.97
2023-01-10T16:56:28.910Z,7.60
2023-01-10T17:01:39.056Z,12.02
2023-01-10T17:06:41.537Z,9.32
2023-01-10T17:11:43.045Z,15.15
2023-01-10T17:16:44.430Z,7.22
2023-01-10T17:21:45.948Z,8.73
2023-01-10T17:26:47.354Z,8.95
2023-01-10T17:31:48.854Z,7.72
2023-01-10T17:36:50.536Z,5.30
2023-01-10T17:41:51.947Z,9.70
2023-01-10T17:46:56.767Z,10.75
2023-01-10T17:51:58.754Z,8.00
2023-01-10T17:57:00.220Z,11.77
2023-01-10T18:02:02.033Z,11.27
2023-01-10T18:07:03.510Z,7.60
2023-01-10T18:12:05.484Z,7.85
2023-01-10T18:17:10.501Z,5.32
2023-01-10T18:22:31.474Z,4.15
2023-01-10T18:27:32.866Z,8.40
2023-01-10T18:32:34.467Z,13.13
2023-01-10T18:37:35.874Z,5.63
2023-01-10T18:42:37.673Z,2.58
2023-01-10T18:47:39.005Z,3.60
2023-01-10T18:52:40.348Z,6.13
2023-01-10T18:57:41.909Z,6.43
2023-01-10T19:02:43.392Z,9.48
2023-01-10T19:07:44.828Z,4.45
2023-01-10T19:12:46.217Z,11.00
2023-01-10T19:17:47.564Z,8.82
2023-01-10T19:22:48.949Z,8.43
2023-01-10T19:27:50.326Z,9.77
2023-01-10T19:32:51.678Z,6.40
2023-01-10T19:37:53.079Z,5.60
2023-01-10T19:42:54.667Z,8.93
2023-01-10T19:47:55.991Z,4.93
2023-01-10T19:52:57.336Z,8.10
2023-01-10T19:58:00.070Z,9.13
2023-01-10T20:03:01.572Z,9.02
2023-01-10T20:08:04.840Z,16.60
2023-01-10T20:13:06.931Z,8.52
2023-01-10T20:18:09.302Z,8.98
2023-01-10T20:23:12.269Z,8.05
2023-01-10T20:28:13.673Z,6.45
2023-01-10T20:33:15.053Z,11.43
2023-01-10T20:38:16.523Z,7.35
2023-01-10T20:43:18.125Z,10.45
2023-01-10T20:48:19.989Z,7.40
2023-01-10T20:53:21.548Z,8.82
2023-01-10T20:58:22.906Z,5.35
2023-01-10T21:03:24.548Z,9.43
2023-01-10T21:08:26.728Z,11.98
2023-01-10T21:13:28.095Z,12.73
2023-01-10T21:18:40.982Z,9.07
2023-01-10T21:23:42.430Z,7.35
2023-01-10T21:28:47.230Z,8.88
2023-01-10T21:33:49.350Z,9.98
2023-01-10T21:38:50.925Z,7.68
2023-01-10T21:43:52.279Z,10.70
2023-01-10T21:48:53.595Z,7.30
2023-01-10T21:53:54.937Z,7.32
2023-01-10T21:58:56.349Z,13.68
2023-01-10T22:03:57.790Z,10.38
2023-01-10T22:08:59.214Z,8.90
2023-01-10T22:14:00.646Z,11.77
2023-01-10T22:19:02.013Z,7.53
2023-01-10T22:24:03.633Z,6.90
2023-01-10T22:29:04.975Z,5.40
2023-01-10T22:34:06.301Z,4.93
2023-01-10T22:39:08.498Z,10.75
2023-01-10T22:44:18.218Z,9.00
2023-01-10T22:49:20.045Z,10.20
2023-01-10T22:54:21.407Z,8.13
2023-01-10T22:59:22.724Z,5.38
2023-01-10T23:04:24.353Z,9.43
2023-01-10T23:09:25.724Z,8.45
2023-01-10T23:14:27.120Z,5.25
2023-01-10T23:19:28.419Z,9.60
2023-01-10T23:24:29.752Z,15.48
2023-01-10T23:29:31.065Z,5.50
2023-01-10T23:34:32.389Z,7.38
2023-01-10T23:39:33.709Z,4.20
2023-01-10T23:44:35.056Z,7.18
2023-01-10T23:49:36.399Z,7.30
2023-01-10T23:54:37.715Z,4.35
2023-01-10T23:59:39.079Z,5.47
